createdAt,value
2023-02-09T00:01:15.939Z,102105.84
2023-02-09T00:03:18.476Z,102110.94
2023-02-09T00:05:20.730Z,102106.31
2023-02-09T00:07:22.703Z,102109.63
2023-02-09T00:09:24.932Z,102109.38
2023-02-09T00:11:48.400Z,102108.06
2023-02-09T00:13:50.891Z,102100.25
2023-02-09T00:15:55.990Z,102103.75
2023-02-09T00:18:00.564Z,102105.63
2023-02-09T00:20:05.148Z,102101.75
2023-02-09T00:22:07.855Z,102107.81
2023-02-09T00:24:11.738Z,102099.03
2023-02-09T00:26:16.274Z,102110.25
2023-02-09T00:28:20.036Z,102109.41
2023-02-09T00:30:22.138Z,102110.13
2023-02-09T00:32:24.352Z,102100.66
2023-02-09T00:34:26.345Z,102099.03
2023-02-09T00:36:32.739Z,102104.09
2023-02-09T00:38:36.062Z,102106.06
2023-02-09T00:40:39.730Z,102107.94
2023-02-09T00:42:41.732Z,102104.19
2023-02-09T00:44:43.937Z,102098.56
2023-02-09T00:46:50.350Z,102094.84
2023-02-09T00:48:52.611Z,102095.44
2023-02-09T00:50:55.118Z,102098.91
2023-02-09T00:52:57.571Z,102097.13
2023-02-09T00:54:59.733Z,102086.34
2023-02-09T00:57:05.480Z,102091.69
2023-02-09T00:59:09.286Z,102097.25
2023-02-09T01:01:15.487Z,102099.47
2023-02-09T01:03:18.050Z,102095.47
2023-02-09T01:05:20.443Z,102091.84
2023-02-09T01:07:22.522Z,102093.59
2023-02-09T01:09:25.533Z,102087.66
2023-02-09T01:11:30.051Z,102079.72
2023-02-09T01:13:32.370Z,102081.19
2023-02-09T01:15:34.805Z,102077.22
2023-02-09T01:17:37.561Z,102077.66
2023-02-09T01:19:39.631Z,102075.09
2023-02-09T01:21:42.286Z,102084.94
2023-02-09T01:23:45.679Z,102082.06
2023-02-09T01:25:50.686Z,102069.66
2023-02-09T01:27:52.900Z,102066.88
2023-02-09T01:29:55.174Z,102077.06
2023-02-09T01:31:58.738Z,102074.28
2023-02-09T01:34:03.403Z,102069.25
2023-02-09T01:36:06.127Z,102068.41
2023-02-09T01:38:11.006Z,102064.06
2023-02-09T01:40:13.496Z,102065.50
2023-02-09T01:42:20.686Z,102073.31
2023-02-09T01:44:22.968Z,102072.97
2023-02-09T01:46:28.084Z,102070.13
2023-02-09T01:48:31.134Z,102065.88
2023-02-09T01:50:39.544Z,102065.88
2023-02-09T01:52:44.083Z,102066.03
2023-02-09T01:54:54.915Z,102060.56
2023-02-09T01:57:02.572Z,102055.94
2023-02-09T01:59:04.806Z,102052.50
2023-02-09T02:01:11.328Z,102042.03
2023-02-09T02:03:18.093Z,102043.56
2023-02-09T02:05:22.384Z,102048.00
2023-02-09T02:07:40.550Z,102052.47
2023-02-09T02:09:46.240Z,102046.97
2023-02-09T02:11:49.200Z,102053.16
2023-02-09T02:13:51.445Z,102040.56
2023-02-09T02:16:10.062Z,102044.63
2023-02-09T02:18:26.381Z,102042.75
2023-02-09T02:20:46.959Z,102046.72
2023-02-09T02:23:10.754Z,102038.66
2023-02-09T02:25:43.153Z,102034.88
2023-02-09T02:28:12.692Z,102038.00
2023-02-09T02:30:44.382Z,102036.19
2023-02-09T02:33:25.432Z,102034.19
2023-02-09T02:35:37.908Z,102027.84
2023-02-09T02:37:55.388Z,102025.81
2023-02-09T02:39:57.631Z,102029.38
2023-02-09T02:42:42.331Z,102023.00
2023-02-09T02:44:58.323Z,102021.41
2023-02-09T02:47:03.616Z,102018.75
2023-02-09T02:49:15.271Z,102013.13
2023-02-09T02:51:26.536Z,102019.97
2023-02-09T02:53:33.587Z,102017.50
2023-02-09T02:55:39.260Z,102020.13
2023-02-09T02:57:46.522Z,102018.41
2023-02-09T02:59:53.888Z,102017.06
2023-02-09T03:02:01.200Z,102019.34
2023-02-09T03:04:07.394Z,102021.22
2023-02-09T03:06:11.871Z,102014.13
2023-02-09T03:08:14.106Z,102005.28
2023-02-09T03:10:29.792Z,102012.25
2023-02-09T03:12:47.432Z,102011.94
2023-02-09T03:15:23.799Z,102013.94
2023-02-09T03:17:56.049Z,102012.13
2023-02-09T03:20:05.952Z,102013.09
2023-02-09T03:22:42.021Z,102014.72
2023-02-09T03:24:54.584Z,102011.53
2023-02-09T03:27:23.022Z,102019.13
2023-02-09T03:29:26.959Z,102014.06
2023-02-09T03:31:30.926Z,102019.81
2023-02-09T03:33:35.995Z,102020.13
2023-02-09T03:35:41.543Z,102022.28
2023-02-09T03:37:44.761Z,102014.97
2023-02-09T03:39:47.412Z,102023.44
2023-02-09T03:41:49.837Z,102017.25
2023-02-09T03:44:10.523Z,102014.94
2023-02-09T03:46:12.748Z,102010.25
2023-02-09T03:48:14.920Z,102006.25
2023-02-09T03:50:17.065Z,102012.13
2023-02-09T03:52:19.556Z,102009.66
2023-02-09T03:54:22.474Z,102013.88
2023-02-09T03:56:25.232Z,102012.28
2023-02-09T03:58:27.479Z,102014.19
2023-02-09T04:00:29.832Z,102007.22
2023-02-09T04:02:31.943Z,102010.31
2023-02-09T04:04:34.371Z,102006.09
2023-02-09T04:06:37.305Z,102006.78
2023-02-09T04:08:40.301Z,102013.41
2023-02-09T04:10:45.723Z,102010.59
2023-02-09T04:12:48.440Z,102010.31
2023-02-09T04:14:50.510Z,102016.13
2023-02-09T04:16:52.747Z,102009.34
2023-02-09T04:18:55.100Z,102005.81
2023-02-09T04:20:57.230Z,102008.97
2023-02-09T04:22:59.630Z,102016.13
2023-02-09T04:25:01.903Z,102011.47
2023-02-09T04:27:06.098Z,102010.34
2023-02-09T04:29:08.255Z,102017.28
2023-02-09T04:31:10.578Z,102015.34
2023-02-09T04:33:12.874Z,102000.69
2023-02-09T04:35:15.094Z,102025.88
2023-02-09T04:37:17.272Z,102020.28
2023-02-09T04:39:19.948Z,102015.72
2023-02-09T04:41:22.253Z,102014.88
2023-02-09T04:43:24.280Z,102018.94
2023-02-09T04:45:26.808Z,102010.63
2023-02-09T04:47:29.396Z,102013.88
2023-02-09T04:49:31.704Z,102016.75
2023-02-09T04:51:33.833Z,102009.44
2023-02-09T04:53:36.045Z,102019.97
2023-02-09T04:55:39.979Z,102014.41
2023-02-09T04:58:00.673Z,102020.09
2023-02-09T05:00:02.778Z,102016.72
2023-02-09T05:02:05.295Z,102015.66
2023-02-09T05:04:07.429Z,102014.28
2023-02-09T05:06:09.910Z,102016.44
2023-02-09T05:08:12.048Z,102015.16
2023-02-09T05:10:16.602Z,102014.41
2023-02-09T05:12:18.590Z,102024.03
2023-02-09T05:14:20.666Z,102023.56
2023-02-09T05:16:22.878Z,102022.81
2023-02-09T05:18:25.711Z,102025.69
2023-02-09T05:20:31.119Z,102033.75
2023-02-09T05:22:33.475Z,102028.59
2023-02-09T05:24:35.579Z,102036.31
2023-02-09T05:26:37.908Z,102030.66
2023-02-09T05:28:40.402Z,102029.25
2023-02-09T05:30:42.811Z,102033.78
2023-02-09T05:32:44.836Z,102036.25
2023-02-09T05:34:46.946Z,102037.81
2023-02-09T05:36:51.999Z,102033.94
2023-02-09T05:38:54.344Z,102032.88
2023-02-09T05:40:56.414Z,102044.91
2023-02-09T05:43:00.038Z,102032.38
2023-02-09T05:45:03.326Z,102033.06
2023-02-09T05:47:05.752Z,102030.56
2023-02-09T05:49:07.831Z,102041.28
2023-02-09T05:51:10.434Z,102035.91
2023-02-09T05:53:14.371Z,102036.50
2023-02-09T05:55:17.298Z,102035.03
2023-02-09T05:57:19.379Z,102032.88
2023-02-09T05:59:21.643Z,102030.44
2023-02-09T06:01:23.736Z,102044.66
2023-02-09T06:03:26.008Z,102045.22
2023-02-09T06:05:28.218Z,102041.84
2023-02-09T06:07:30.704Z,102045.16
2023-02-09T06:09:33.303Z,102043.47
2023-02-09T06:11:35.820Z,102044.72
2023-02-09T06:13:37.801Z,102050.50
2023-02-09T06:15:40.827Z,102045.78
2023-02-09T06:17:43.032Z,102042.28
2023-02-09T06:19:45.375Z,102040.06
2023-02-09T06:21:47.564Z,102039.28
2023-02-09T06:23:50.012Z,102037.25
2023-02-09T06:25:53.424Z,102040.63
2023-02-09T06:27:55.529Z,102040.22
2023-02-09T06:29:57.656Z,102038.22
2023-02-09T06:32:00.444Z,102043.38
2023-02-09T06:34:05.957Z,102041.16
2023-02-09T06:36:09.000Z,102034.75
2023-02-09T06:38:11.174Z,102030.22
2023-02-09T06:40:13.848Z,102036.56
2023-02-09T06:42:16.206Z,102030.56
2023-02-09T06:44:18.817Z,102036.78
2023-02-09T06:46:21.362Z,102032.63
2023-02-09T06:48:23.994Z,102033.13
2023-02-09T06:50:29.116Z,102030.97
2023-02-09T06:52:34.025Z,102028.47
2023-02-09T06:54:36.277Z,102043.69
2023-02-09T06:56:38.357Z,102037.59
2023-02-09T06:58:41.660Z,102040.47
2023-02-09T07:00:44.231Z,102043.38
2023-02-09T07:02:46.780Z,102046.09
2023-02-09T07:04:49.241Z,102044.13
2023-02-09T07:06:51.601Z,102043.84
2023-02-09T07:08:53.942Z,102038.94
2023-02-09T07:10:56.156Z,102041.34
2023-02-09T07:13:00.580Z,102038.50
2023-02-09T07:15:06.169Z,102036.44
2023-02-09T07:17:08.698Z,102041.47
2023-02-09T07:19:11.797Z,102042.91
2023-02-09T07:21:18.569Z,102035.56
2023-02-09T07:23:21.127Z,102037.78
2023-02-09T07:25:23.257Z,102031.22
2023-02-09T07:27:25.629Z,102028.47
2023-02-09T07:29:28.078Z,102029.84
2023-02-09T07:31:31.123Z,102032.81
2023-02-09T07:33:34.803Z,102032.34
2023-02-09T07:35:41.067Z,102031.53
2023-02-09T07:37:43.033Z,102032.09
2023-02-09T07:39:45.531Z,102036.72
2023-02-09T07:41:47.750Z,102034.94
2023-02-09T07:43:50.434Z,102031.63
2023-02-09T07:45:52.369Z,102035.03
2023-02-09T07:47:54.593Z,102040.38
2023-02-09T07:49:56.739Z,102040.81
2023-02-09T07:51:59.253Z,102046.44
2023-02-09T07:54:02.211Z,102048.63
2023-02-09T07:56:09.150Z,102052.31
2023-02-09T07:58:11.544Z,102049.28
2023-02-09T08:00:14.441Z,102044.56
2023-02-09T08:02:30.073Z,102035.34
2023-02-09T08:04:32.543Z,102046.56
2023-02-09T08:06:42.788Z,102036.31
2023-02-09T08:08:47.041Z,102036.53
2023-02-09T08:10:49.619Z,102032.69
2023-02-09T08:13:02.667Z,102037.53
2023-02-09T08:15:05.802Z,102032.19
2023-02-09T08:17:24.378Z,102035.75
2023-02-09T08:19:26.653Z,102028.84
2023-02-09T08:21:31.228Z,102026.41
2023-02-09T08:23:35.493Z,102031.16
2023-02-09T08:25:39.306Z,102026.94
2023-02-09T08:27:45.265Z,102031.06
2023-02-09T08:29:49.013Z,102026.13
2023-02-09T08:31:51.760Z,102029.13
2023-02-09T08:33:54.619Z,102028.88
2023-02-09T08:35:56.771Z,102026.66
2023-02-09T08:38:03.306Z,102022.59
2023-02-09T08:40:05.826Z,102017.63
2023-02-09T08:42:08.140Z,102016.19
2023-02-09T08:44:10.365Z,102009.50
2023-02-09T08:46:15.000Z,102008.31
2023-02-09T08:48:17.890Z,102014.66
2023-02-09T08:50:19.985Z,102017.53
2023-02-09T08:52:25.182Z,102015.22
2023-02-09T08:54:27.326Z,102011.72
2023-02-09T08:56:32.548Z,102011.09
2023-02-09T08:58:35.086Z,102004.13
2023-02-09T09:00:36.950Z,102005.97
2023-02-09T09:02:38.804Z,102015.97
2023-02-09T09:04:41.065Z,102003.16
2023-02-09T09:06:43.282Z,102007.56
2023-02-09T09:08:45.375Z,102010.41
2023-02-09T09:10:47.302Z,102014.69
2023-02-09T09:12:49.551Z,102018.28
2023-02-09T09:14:52.100Z,102016.75
2023-02-09T09:16:57.966Z,102021.34
2023-02-09T09:19:00.298Z,102023.31
2023-02-09T09:21:02.597Z,102022.41
2023-02-09T09:23:04.764Z,102026.00
2023-02-09T09:25:07.704Z,102025.06
2023-02-09T09:27:11.232Z,102027.03
2023-02-09T09:29:13.620Z,102015.63
2023-02-09T09:31:17.682Z,102016.88
2023-02-09T09:33:20.284Z,102014.00
2023-02-09T09:35:22.775Z,102021.28
2023-02-09T09:37:27.048Z,102020.69
2023-02-09T09:39:29.319Z,102023.63
2023-02-09T09:41:38.158Z,102025.06
2023-02-09T09:43:41.731Z,102028.97
2023-02-09T09:45:47.465Z,102020.25
2023-02-09T09:47:50.093Z,102021.28
2023-02-09T09:49:52.538Z,102021.28
2023-02-09T09:52:21.348Z,102017.59
2023-02-09T09:54:26.981Z,102021.28
2023-02-09T09:56:31.972Z,102015.31
2023-02-09T09:58:35.592Z,102006.53
2023-02-09T10:00:42.534Z,102014.56
2023-02-09T10:02:44.948Z,102003.09
2023-02-09T10:04:48.544Z,102006.94
2023-02-09T10:07:01.883Z,102006.75
2023-02-09T10:09:12.390Z,102001.34
2023-02-09T10:11:16.990Z,101996.34
2023-02-09T10:13:26.069Z,101991.00
2023-02-09T10:15:36.090Z,102000.78
2023-02-09T10:17:38.371Z,101992.81
2023-02-09T10:19:42.171Z,102001.69
2023-02-09T10:21:44.419Z,101992.06
2023-02-09T10:23:52.394Z,101994.03
2023-02-09T10:26:09.771Z,101985.28
2023-02-09T10:28:26.826Z,101985.16
2023-02-09T10:30:30.454Z,101987.81
2023-02-09T10:32:43.494Z,101977.09
2023-02-09T10:34:54.571Z,101983.50
2023-02-09T10:37:17.367Z,101979.13
2023-02-09T10:39:31.657Z,101975.63
2023-02-09T10:41:34.934Z,101974.78
2023-02-09T10:43:37.134Z,101965.72
2023-02-09T10:45:42.395Z,101972.28
2023-02-09T10:48:00.508Z,101965.25
2023-02-09T10:50:20.093Z,101967.84
2023-02-09T10:52:25.575Z,101970.50
2023-02-09T10:54:29.086Z,101965.22
2023-02-09T10:56:45.872Z,101963.22
2023-02-09T10:58:59.534Z,101961.56
2023-02-09T11:01:10.190Z,101966.13
2023-02-09T11:03:22.347Z,101969.56
2023-02-09T11:05:35.139Z,101958.13
2023-02-09T11:07:42.758Z,101960.94
2023-02-09T11:09:52.670Z,101952.84
2023-02-09T11:11:55.655Z,101945.91
2023-02-09T11:13:59.611Z,101944.00
2023-02-09T11:16:07.764Z,101940.50
2023-02-09T11:18:22.720Z,101930.97
2023-02-09T11:20:40.026Z,101936.31
2023-02-09T11:22:51.446Z,101936.31
2023-02-09T11:25:18.593Z,101938.09
2023-02-09T11:27:57.713Z,101939.72
2023-02-09T11:30:08.095Z,101936.16
2023-02-09T11:32:38.392Z,101936.38
2023-02-09T11:34:57.325Z,101925.88
2023-02-09T11:36:59.221Z,101922.31
2023-02-09T11:39:09.078Z,101919.69
2023-02-09T11:41:34.127Z,101917.84
2023-02-09T11:43:40.832Z,101913.47
2023-02-09T11:45:51.447Z,101922.41
2023-02-09T11:48:20.640Z,101914.50
2023-02-09T11:50:47.537Z,101910.84
2023-02-09T11:52:57.655Z,101900.38
2023-02-09T11:55:09.189Z,101901.19
2023-02-09T11:57:23.015Z,101905.69
2023-02-09T11:59:36.918Z,101908.44
2023-02-09T12:02:23.936Z,101904.03
2023-02-09T12:04:44.161Z,101905.03
2023-02-09T12:06:51.366Z,101904.28
2023-02-09T12:09:09.213Z,101889.19
2023-02-09T12:11:53.284Z,101897.13
2023-02-09T12:13:58.531Z,101888.28
2023-02-09T12:16:07.911Z,101896.19
2023-02-09T12:18:21.211Z,101897.91
2023-02-09T12:20:30.709Z,101899.66
2023-02-09T12:22:35.802Z,101894.44
2023-02-09T12:24:41.003Z,101895.34
2023-02-09T12:26:44.397Z,101892.81
2023-02-09T12:32:44.953Z,101888.50
2023-02-09T12:34:53.409Z,101889.41
2023-02-09T12:37:29.349Z,101888.34
2023-02-09T12:39:35.185Z,101885.06
2023-02-09T12:41:43.507Z,101871.66
2023-02-09T12:43:46.435Z,101873.50
2023-02-09T12:46:16.973Z,101865.13
2023-02-09T12:48:19.917Z,101869.72
2023-02-09T12:50:44.404Z,101865.31
2023-02-09T12:53:40.691Z,101864.41
2023-02-09T12:55:59.912Z,101864.47
2023-02-09T12:58:01.907Z,101868.03
2023-02-09T13:00:08.350Z,101864.47
2023-02-09T13:02:32.134Z,101862.63
2023-02-09T13:04:42.014Z,101859.16
2023-02-09T13:06:49.225Z,101851.19
2023-02-09T13:08:54.877Z,101850.19
2023-02-09T13:11:19.373Z,101851.91
2023-02-09T13:13:30.203Z,101847.44
2023-02-09T13:15:44.388Z,101848.28
2023-02-09T13:18:13.918Z,101837.69
2023-02-09T13:20:28.246Z,101837.66
2023-02-09T13:22:40.847Z,101834.13
2023-02-09T13:24:56.945Z,101834.03
2023-02-09T13:27:01.007Z,101836.91
2023-02-09T13:29:22.119Z,101829.66
2023-02-09T13:31:35.694Z,101823.56
2023-02-09T13:33:47.753Z,101819.84
2023-02-09T13:36:02.147Z,101820.81
2023-02-09T13:38:17.846Z,101822.59
2023-02-09T13:40:27.601Z,101826.16
2023-02-09T13:42:36.241Z,101825.38
2023-02-09T13:44:44.542Z,101834.28
2023-02-09T13:46:55.326Z,101828.84
2023-02-09T13:49:13.768Z,101831.59
2023-02-09T13:51:22.740Z,101827.22
2023-02-09T13:53:27.428Z,101826.38
2023-02-09T13:55:30.376Z,101822.75
2023-02-09T13:57:36.417Z,101819.81
2023-02-09T13:59:42.480Z,101822.47
2023-02-09T14:01:48.214Z,101820.78
2023-02-09T14:03:58.543Z,101815.31
2023-02-09T14:06:11.448Z,101815.41
2023-02-09T14:08:16.173Z,101816.41
2023-02-09T14:10:19.984Z,101810.09
2023-02-09T14:12:55.860Z,101807.31
2023-02-09T14:15:16.660Z,101809.16
2023-02-09T14:17:30.750Z,101817.06
2023-02-09T14:19:33.270Z,101808.25
2023-02-09T14:21:37.689Z,101801.84
2023-02-09T14:23:41.744Z,101800.09
2023-02-09T14:26:01.937Z,101796.56
2023-02-09T14:28:05.394Z,101793.03
2023-02-09T14:30:37.055Z,101798.25
2023-02-09T14:32:43.318Z,101801.00
2023-02-09T14:34:45.691Z,101803.66
2023-02-09T14:37:00.224Z,101799.84
2023-02-09T14:39:17.299Z,101792.84
2023-02-09T14:41:31.354Z,101797.19
2023-02-09T14:43:33.682Z,101800.75
2023-02-09T14:45:43.875Z,101794.44
2023-02-09T14:47:46.227Z,101796.16
2023-02-09T14:49:48.256Z,101797.06
2023-02-09T14:52:01.446Z,101799.72
2023-02-09T14:54:03.870Z,101797.94
2023-02-09T14:56:06.604Z,101801.50
2023-02-09T14:58:20.623Z,101793.28
2023-02-09T15:00:28.689Z,101784.38
2023-02-09T15:02:31.641Z,101775.31
2023-02-09T15:04:34.226Z,101780.66
2023-02-09T15:06:36.530Z,101776.19
2023-02-09T15:08:39.487Z,101783.16
2023-02-09T15:10:57.039Z,101784.00
2023-02-09T15:12:59.810Z,101776.94
2023-02-09T15:15:02.557Z,101782.25
2023-02-09T15:17:17.250Z,101771.53
2023-02-09T15:19:22.842Z,101778.53
2023-02-09T15:21:25.536Z,101771.44
2023-02-09T15:23:27.741Z,101771.44
2023-02-09T15:25:30.106Z,101765.13
2023-02-09T15:27:40.332Z,101773.06
2023-02-09T15:29:45.010Z,101766.81
2023-02-09T15:31:47.289Z,101764.19
2023-02-09T15:33:49.454Z,101770.41
2023-02-09T15:35:51.800Z,101768.59
2023-02-09T15:38:00.019Z,101766.66
2023-02-09T15:40:14.436Z,101768.44
2023-02-09T15:42:37.167Z,101767.59
2023-02-09T15:44:58.331Z,101773.72
2023-02-09T15:47:21.696Z,101771.84
2023-02-09T15:49:24.072Z,101765.56
2023-02-09T15:51:31.341Z,101762.75
2023-02-09T15:53:34.376Z,101771.59
2023-02-09T15:55:37.615Z,101766.16
2023-02-09T15:57:39.767Z,101764.31
2023-02-09T15:59:42.728Z,101766.03
2023-02-09T16:01:46.060Z,101773.91
2023-02-09T16:03:48.343Z,101780.97
2023-02-09T16:05:58.436Z,101778.22
2023-02-09T16:08:00.626Z,101780.88
2023-02-09T16:10:02.918Z,101778.09
2023-02-09T16:12:10.080Z,101773.66
2023-02-09T16:14:18.021Z,101770.78
2023-02-09T16:16:20.479Z,101773.44
2023-02-09T16:18:22.571Z,101787.59
2023-02-09T16:20:26.555Z,101770.66
2023-02-09T16:22:28.745Z,101780.31
2023-02-09T16:24:36.322Z,101772.25
2023-02-09T16:26:38.387Z,101770.44
2023-02-09T16:28:40.688Z,101768.50
2023-02-09T16:30:53.071Z,101773.59
2023-02-09T16:32:56.325Z,101778.97
2023-02-09T16:35:14.640Z,101782.47
2023-02-09T16:37:27.173Z,101777.88
2023-02-09T16:39:31.139Z,101769.03
2023-02-09T16:41:49.826Z,101771.63
2023-02-09T16:43:51.834Z,101769.75
2023-02-09T16:46:03.443Z,101769.63
2023-02-09T16:48:15.235Z,101773.09
2023-02-09T16:50:25.473Z,101771.16
2023-02-09T16:52:31.285Z,101763.94
2023-02-09T16:54:40.830Z,101768.22
2023-02-09T16:56:53.692Z,101768.09
2023-02-09T16:58:56.495Z,101766.25
2023-02-09T17:01:01.837Z,101762.53
2023-02-09T17:03:20.227Z,101768.41
2023-02-09T17:05:31.428Z,101766.72
2023-02-09T17:07:48.709Z,101756.25
2023-02-09T17:09:57.645Z,101757.78
2023-02-09T17:12:02.283Z,101760.38
2023-02-09T17:14:04.712Z,101755.94
2023-02-09T17:16:07.735Z,101764.69
2023-02-09T17:18:17.235Z,101762.75
2023-02-09T17:20:22.726Z,101761.81
2023-02-09T17:22:25.316Z,101761.00
2023-02-09T17:24:27.511Z,101762.69
2023-02-09T17:26:29.632Z,101773.31
2023-02-09T17:28:32.294Z,101763.47
2023-02-09T17:30:34.962Z,101768.75
2023-02-09T17:32:38.544Z,101770.34
2023-02-09T17:34:41.045Z,101781.91
2023-02-09T17:36:43.706Z,101784.44
2023-02-09T17:38:46.939Z,101782.72
2023-02-09T17:40:53.601Z,101777.06
2023-02-09T17:42:56.578Z,101783.28
2023-02-09T17:44:59.005Z,101777.81
2023-02-09T17:47:02.532Z,101776.94
2023-02-09T17:49:05.331Z,101770.66
2023-02-09T17:51:26.280Z,101771.28
2023-02-09T17:53:33.426Z,101763.28
2023-02-09T17:55:35.961Z,101765.81
2023-02-09T17:57:38.049Z,101766.63
2023-02-09T17:59:40.384Z,101768.41
2023-02-09T18:01:45.902Z,101761.97
2023-02-09T18:03:48.501Z,101760.19
2023-02-09T18:06:01.938Z,101767.97
2023-02-09T18:08:04.371Z,101766.22
2023-02-09T18:10:07.546Z,101774.16
2023-02-09T18:12:37.233Z,101775.63
2023-02-09T18:14:39.749Z,101773.97
2023-02-09T18:16:43.164Z,101774.66
2023-02-09T18:18:47.043Z,101776.28
2023-02-09T18:20:49.155Z,101769.13
2023-02-09T18:22:51.972Z,101770.00
2023-02-09T18:24:59.850Z,101760.28
2023-02-09T18:27:02.381Z,101758.44
2023-02-09T18:29:04.457Z,101766.31
2023-02-09T18:31:06.833Z,101766.22
2023-02-09T18:33:10.707Z,101768.72
2023-02-09T18:35:35.749Z,101770.16
2023-02-09T18:37:38.282Z,101765.91
2023-02-09T18:39:46.341Z,101778.16
2023-02-09T18:41:54.862Z,101776.22
2023-02-09T18:43:57.670Z,101784.97
2023-02-09T18:46:01.348Z,101784.91
2023-02-09T18:48:04.151Z,101784.81
2023-02-09T18:50:07.837Z,101788.34
2023-02-09T18:52:10.565Z,101784.72
2023-02-09T18:54:12.628Z,101791.66
2023-02-09T18:56:19.840Z,101788.81
2023-02-09T18:58:22.218Z,101795.91
2023-02-09T19:00:25.117Z,101793.22
2023-02-09T19:02:27.899Z,101792.84
2023-02-09T19:04:32.263Z,101789.31
2023-02-09T19:06:35.770Z,101797.91
2023-02-09T19:08:42.439Z,101795.38
2023-02-09T19:11:47.678Z,101796.75
2023-02-09T19:14:08.920Z,101790.50
2023-02-09T19:16:14.826Z,101796.56
2023-02-09T19:18:17.130Z,101801.81
2023-02-09T19:20:22.360Z,101803.56
2023-02-09T19:22:25.471Z,101801.81
2023-02-09T19:24:31.381Z,101801.78
2023-02-09T19:26:36.625Z,101795.34
2023-02-09T19:28:38.764Z,101800.56
2023-02-09T19:30:44.696Z,101802.31
2023-02-09T19:32:47.240Z,101804.16
2023-02-09T19:34:50.957Z,101803.22
2023-02-09T19:36:53.318Z,101810.25
2023-02-09T19:38:58.141Z,101804.00
2023-02-09T19:41:12.479Z,101806.41
2023-02-09T19:43:14.945Z,101800.31
2023-02-09T19:45:17.111Z,101805.50
2023-02-09T19:47:26.484Z,101800.97
2023-02-09T19:49:28.952Z,101800.06
2023-02-09T19:51:31.267Z,101806.00
2023-02-09T19:53:34.077Z,101805.97
2023-02-09T19:55:36.514Z,101806.28
2023-02-09T19:57:38.682Z,101802.06
2023-02-09T19:59:41.026Z,101812.66
2023-02-09T20:01:43.586Z,101809.19
2023-02-09T20:03:46.435Z,101814.59
2023-02-09T20:05:49.359Z,101810.34
2023-02-09T20:07:55.559Z,101802.66
2023-02-09T20:09:58.240Z,101799.31
2023-02-09T20:12:00.450Z,101811.19
2023-02-09T20:14:02.980Z,101813.47
2023-02-09T20:16:13.221Z,101809.53
2023-02-09T20:18:17.697Z,101802.16
2023-02-09T20:20:20.119Z,101801.81
2023-02-09T20:22:27.055Z,101802.50
2023-02-09T20:24:29.679Z,101805.31
2023-02-09T20:26:33.664Z,101802.59
2023-02-09T20:28:36.372Z,101808.06
2023-02-09T20:30:42.064Z,101803.38
2023-02-09T20:32:44.226Z,101796.69
2023-02-09T20:34:46.674Z,101795.03
2023-02-09T20:36:49.185Z,101794.22
2023-02-09T20:38:54.700Z,101796.69
2023-02-09T20:40:57.304Z,101802.72
2023-02-09T20:43:17.654Z,101805.56
2023-02-09T20:45:38.279Z,101803.50
2023-02-09T20:47:40.541Z,101805.94
2023-02-09T20:49:42.884Z,101805.03
2023-02-09T20:51:46.418Z,101799.16
2023-02-09T20:53:48.617Z,101802.53
2023-02-09T20:55:50.556Z,101802.72
2023-02-09T20:57:53.248Z,101799.88
2023-02-09T21:00:01.204Z,101803.88
2023-02-09T21:02:03.623Z,101797.13
2023-02-09T21:04:07.625Z,101803.03
2023-02-09T21:06:10.045Z,101803.72
2023-02-09T21:08:12.432Z,101802.34
2023-02-09T21:10:15.929Z,101803.44
2023-02-09T21:12:18.335Z,101805.59
2023-02-09T21:14:27.557Z,101814.31
2023-02-09T21:16:36.986Z,101808.25
2023-02-09T21:18:39.746Z,101815.00
2023-02-09T21:20:42.069Z,101808.50
2023-02-09T21:22:44.329Z,101810.00
2023-02-09T21:24:46.859Z,101809.75
2023-02-09T21:26:49.134Z,101811.44
2023-02-09T21:28:56.566Z,101808.75
2023-02-09T21:30:59.299Z,101807.81
2023-02-09T21:33:05.246Z,101811.25
2023-02-09T21:35:10.539Z,101814.63
2023-02-09T21:37:14.261Z,101813.72
2023-02-09T21:39:16.994Z,101811.31
2023-02-09T21:41:42.706Z,101808.19
2023-02-09T21:43:44.825Z,101807.41
2023-02-09T21:45:47.349Z,101805.91
2023-02-09T21:47:49.503Z,101800.94
2023-02-09T21:49:51.802Z,101806.16
2023-02-09T21:51:54.081Z,101811.09
2023-02-09T21:53:56.244Z,101815.63
2023-02-09T21:55:59.299Z,101813.19
2023-02-09T21:58:01.487Z,101808.09
2023-02-09T22:00:07.678Z,101812.81
2023-02-09T22:02:14.820Z,101811.06
2023-02-09T22:04:18.729Z,101808.56
2023-02-09T22:06:20.845Z,101809.47
2023-02-09T22:08:27.091Z,101810.25
2023-02-09T22:10:29.083Z,101808.00
2023-02-09T22:12:31.365Z,101815.63
2023-02-09T22:14:33.819Z,101811.56
2023-02-09T22:16:36.064Z,101794.91
2023-02-09T22:18:38.160Z,101799.22
2023-02-09T22:20:42.102Z,101795.06
2023-02-09T22:22:46.147Z,101797.84
2023-02-09T22:24:50.526Z,101795.06
2023-02-09T22:26:53.057Z,101796.88
2023-02-09T22:28:55.403Z,101802.09
2023-02-09T22:30:58.152Z,101799.16
2023-02-09T22:33:01.697Z,101793.91
2023-02-09T22:35:03.996Z,101797.41
2023-02-09T22:37:06.139Z,101798.19
2023-02-09T22:39:08.489Z,101801.47
2023-02-09T22:41:21.803Z,101801.06
2023-02-09T22:43:24.213Z,101801.97
2023-02-09T22:45:26.362Z,101792.47
2023-02-09T22:47:28.643Z,101791.28
2023-02-09T22:49:30.849Z,101797.41
2023-02-09T22:51:35.258Z,101798.19
2023-02-09T22:53:37.894Z,101786.78
2023-02-09T22:55:39.958Z,101792.94
2023-02-09T22:57:42.072Z,101797.25
2023-02-09T22:59:43.950Z,101785.69
2023-02-09T23:01:46.201Z,101792.38
2023-02-09T23:03:48.524Z,101787.13
2023-02-09T23:05:51.251Z,101796.13
2023-02-09T23:07:53.364Z,101787.34
2023-02-09T23:09:55.606Z,101783.69
2023-02-09T23:11:58.046Z,101785.47
2023-02-09T23:14:11.429Z,101783.72
2023-02-09T23:16:19.443Z,101785.16
2023-02-09T23:18:21.782Z,101781.84
2023-02-09T23:20:23.862Z,101775.97
2023-02-09T23:22:26.080Z,101778.44
2023-02-09T23:24:28.784Z,101769.94
2023-02-09T23:26:31.230Z,101774.09
2023-02-09T23:28:35.549Z,101773.91
2023-02-09T23:30:38.113Z,101775.63
2023-02-09T23:32:40.286Z,101765.53
2023-02-09T23:34:45.512Z,101766.78
2023-02-09T23:36:48.349Z,101763.31
2023-02-09T23:39:08.667Z,101774.78
2023-02-09T23:41:13.622Z,101771.38
2023-02-09T23:43:15.790Z,101765.97
2023-02-09T23:45:18.198Z,101767.88
2023-02-09T23:47:20.422Z,101753.34
2023-02-09T23:49:23.214Z,101755.22
2023-02-09T23:51:29.911Z,101759.31
2023-02-09T23:53:33.654Z,101743.34
2023-02-09T23:55:38.472Z,101749.59
2023-02-09T23:57:40.529Z,101762.50
2023-02-09T23:59:42.589Z,101758.31
